createdAt,value
2023-04-19T00:00:31.595Z,29.37
2023-04-19T00:02:05.130Z,33.37
2023-04-19T00:03:37.985Z,35.53
2023-04-19T00:05:13.871Z,34.00
2023-04-19T00:06:47.440Z,35.30
2023-04-19T00:08:21.486Z,32.43
2023-04-19T00:09:54.888Z,34.00
2023-04-19T00:11:28.251Z,34.63
2023-04-19T00:13:03.063Z,37.70
2023-04-19T00:14:35.457Z,35.77
2023-04-19T00:16:09.311Z,34.90
2023-04-19T00:17:42.795Z,34.10
2023-04-19T00:19:15.221Z,33.67
2023-04-19T00:20:48.932Z,31.43
2023-04-19T00:22:22.314Z,40.10
2023-04-19T00:23:54.737Z,31.97
2023-04-19T00:25:28.482Z,34.03
2023-04-19T00:27:02.328Z,31.57
2023-04-19T00:28:37.170Z,36.03
2023-04-19T00:30:10.896Z,34.27
2023-04-19T00:31:44.298Z,34.50
2023-04-19T00:33:17.666Z,35.23
2023-04-19T00:34:51.134Z,33.50
2023-04-19T00:36:23.511Z,32.83
2023-04-19T00:37:56.876Z,32.23
2023-04-19T00:39:29.325Z,30.10
2023-04-19T00:41:03.591Z,34.20
2023-04-19T00:42:37.591Z,32.97
2023-04-19T00:44:13.189Z,32.50
2023-04-19T00:45:45.967Z,27.90
2023-04-19T00:47:19.458Z,27.50
2023-04-19T00:48:52.916Z,25.13
2023-04-19T00:50:25.388Z,24.23
2023-04-19T00:51:58.833Z,26.07
2023-04-19T00:53:31.876Z,24.87
2023-04-19T00:55:07.022Z,24.87
2023-04-19T00:56:41.982Z,23.77
2023-04-19T00:58:15.456Z,25.23
2023-04-19T00:59:50.191Z,24.73
2023-04-19T01:01:23.776Z,23.70
2023-04-19T01:02:56.277Z,21.97
2023-04-19T01:04:29.950Z,20.77
2023-04-19T01:06:03.422Z,23.00
2023-04-19T01:07:35.831Z,21.43
2023-04-19T01:09:09.409Z,23.90
2023-04-19T01:10:42.810Z,18.50
2023-04-19T01:12:16.176Z,22.47
2023-04-19T01:13:48.696Z,21.83
2023-04-19T01:15:25.845Z,20.97
2023-04-19T01:16:59.608Z,21.10
2023-04-19T01:18:37.482Z,21.50
2023-04-19T01:20:13.592Z,24.40
2023-04-19T01:21:47.073Z,18.80
2023-04-19T01:23:21.880Z,21.00
2023-04-19T01:24:56.008Z,18.83
2023-04-19T01:26:28.677Z,17.83
2023-04-19T01:28:02.045Z,20.17
2023-04-19T01:29:34.612Z,16.40
2023-04-19T01:31:08.146Z,18.03
2023-04-19T01:32:43.503Z,19.40
2023-04-19T01:34:16.055Z,17.10
2023-04-19T01:35:49.933Z,20.53
2023-04-19T01:37:23.405Z,17.60
2023-04-19T01:38:58.162Z,18.17
2023-04-19T01:40:31.650Z,17.10
2023-04-19T01:42:04.432Z,19.73
2023-04-19T01:43:37.940Z,17.13
2023-04-19T01:45:11.550Z,18.07
2023-04-19T01:46:44.997Z,17.23
2023-04-19T01:48:19.356Z,15.70
2023-04-19T01:49:52.792Z,16.00
2023-04-19T01:51:25.166Z,16.57
2023-04-19T01:52:58.620Z,17.97
2023-04-19T01:54:34.071Z,16.67
2023-04-19T01:56:07.794Z,16.07
2023-04-19T01:57:40.183Z,16.53
2023-04-19T01:59:14.266Z,17.33
2023-04-19T02:00:47.686Z,17.10
2023-04-19T02:02:21.620Z,14.63
2023-04-19T02:03:55.233Z,15.20
2023-04-19T02:05:29.307Z,15.83
2023-04-19T02:07:02.723Z,18.87
2023-04-19T02:08:35.142Z,12.97
2023-04-19T02:10:11.393Z,15.30
2023-04-19T02:11:44.793Z,14.77
2023-04-19T02:13:18.191Z,13.67
2023-04-19T02:14:51.780Z,15.73
2023-04-19T02:16:36.684Z,14.23
2023-04-19T02:18:11.754Z,15.80
2023-04-19T02:19:46.629Z,20.50
2023-04-19T02:21:20.020Z,17.50
2023-04-19T02:22:54.212Z,16.70
2023-04-19T02:24:27.626Z,17.47
2023-04-19T02:26:03.156Z,15.93
2023-04-19T02:27:36.539Z,17.30
2023-04-19T02:29:09.971Z,16.60
2023-04-19T02:30:45.157Z,19.40
2023-04-19T02:32:17.564Z,18.10
2023-04-19T02:33:50.940Z,15.90
2023-04-19T02:35:23.418Z,17.80
2023-04-19T02:36:56.812Z,15.73
2023-04-19T02:38:30.258Z,17.83
2023-04-19T02:40:05.223Z,17.73
2023-04-19T02:41:40.004Z,15.77
2023-04-19T02:43:13.352Z,16.27
2023-04-19T02:44:46.710Z,17.80
2023-04-19T02:46:21.353Z,15.23
2023-04-19T02:47:53.858Z,17.43
2023-04-19T02:49:27.303Z,17.23
2023-04-19T02:51:00.872Z,18.23
2023-04-19T02:52:34.535Z,16.67
2023-04-19T02:54:07.991Z,16.93
2023-04-19T02:55:41.464Z,16.50
2023-04-19T03:00:15.394Z,18.20
2023-04-19T03:01:56.222Z,16.63
2023-04-19T03:03:31.152Z,17.70
2023-04-19T03:05:05.170Z,21.23
2023-04-19T03:06:38.858Z,17.33
2023-04-19T03:08:12.307Z,19.43
2023-04-19T03:09:46.270Z,20.67
2023-04-19T03:11:18.793Z,21.13
2023-04-19T03:12:53.509Z,18.20
2023-04-19T03:14:26.980Z,18.60
2023-04-19T03:16:02.112Z,19.00
2023-04-19T03:17:38.489Z,19.30
2023-04-19T03:19:12.665Z,21.07
2023-04-19T03:20:52.877Z,19.37
2023-04-19T03:22:26.383Z,21.37
2023-04-19T03:23:59.835Z,21.43
2023-04-19T03:25:33.317Z,20.83
2023-04-19T03:27:20.053Z,18.97
2023-04-19T03:28:58.408Z,20.33
2023-04-19T03:30:54.948Z,20.03
2023-04-19T03:32:29.993Z,17.27
2023-04-19T03:34:03.670Z,17.03
2023-04-19T03:35:42.613Z,19.67
2023-04-19T03:37:18.072Z,19.47
2023-04-19T03:38:51.754Z,20.47
2023-04-19T03:40:26.795Z,19.60
2023-04-19T03:42:01.352Z,21.63
2023-04-19T03:43:50.823Z,19.97
2023-04-19T03:45:24.310Z,20.27
2023-04-19T03:46:58.137Z,24.07
2023-04-19T03:48:36.738Z,22.37
2023-04-19T03:50:10.678Z,23.87
2023-04-19T03:51:45.873Z,24.67
2023-04-19T03:53:19.933Z,23.67
2023-04-19T03:54:53.349Z,24.17
2023-04-19T03:56:37.308Z,24.37
2023-04-19T03:58:11.119Z,21.47
2023-04-19T03:59:56.110Z,25.73
2023-04-19T04:01:30.133Z,26.13
2023-04-19T04:03:03.771Z,25.53
2023-04-19T04:04:39.178Z,28.47
2023-04-19T04:06:14.474Z,24.70
2023-04-19T04:07:48.203Z,28.90
2023-04-19T04:09:21.580Z,30.77
2023-04-19T04:10:56.282Z,28.63
2023-04-19T04:12:29.789Z,28.93
2023-04-19T04:14:06.375Z,27.50
2023-04-19T04:15:42.997Z,27.57
2023-04-19T04:17:19.479Z,28.23
2023-04-19T04:18:52.935Z,27.27
2023-04-19T04:20:28.480Z,27.07
2023-04-19T04:22:08.471Z,28.33
2023-04-19T04:23:47.249Z,23.67
2023-04-19T04:25:29.402Z,23.00
2023-04-19T04:27:04.971Z,25.03
2023-04-19T04:28:41.392Z,26.37
2023-04-19T04:30:15.216Z,25.50
2023-04-19T04:31:48.629Z,26.87
2023-04-19T04:33:26.429Z,24.87
2023-04-19T04:35:00.154Z,24.60
2023-04-19T04:36:44.340Z,27.07
2023-04-19T04:38:24.652Z,27.80
2023-04-19T04:39:59.487Z,24.30
2023-04-19T04:41:33.068Z,22.17
2023-04-19T04:43:06.764Z,19.67
2023-04-19T04:44:41.501Z,20.13
2023-04-19T04:46:16.513Z,19.13
2023-04-19T04:47:50.164Z,18.83
2023-04-19T04:49:23.617Z,18.20
2023-04-19T04:50:57.056Z,18.17
2023-04-19T04:52:32.634Z,18.53
2023-04-19T04:54:18.942Z,19.37
2023-04-19T04:55:54.212Z,17.40
2023-04-19T04:57:27.589Z,14.20
2023-04-19T04:59:00.974Z,15.00
2023-04-19T05:00:39.810Z,15.80
2023-04-19T05:02:15.374Z,15.13
2023-04-19T05:03:49.660Z,17.10
2023-04-19T05:05:25.702Z,17.53
2023-04-19T05:06:59.087Z,17.53
2023-04-19T05:08:35.450Z,16.33
2023-04-19T05:10:21.788Z,14.67
2023-04-19T05:11:55.457Z,17.97
2023-04-19T05:13:30.038Z,16.57
2023-04-19T05:15:03.460Z,19.03
2023-04-19T05:16:37.246Z,13.37
2023-04-19T05:18:11.107Z,13.97
2023-04-19T05:19:44.568Z,12.10
2023-04-19T05:21:17.134Z,12.70
2023-04-19T05:22:50.750Z,13.07
2023-04-19T05:24:26.955Z,11.90
2023-04-19T05:26:00.483Z,14.50
2023-04-19T05:27:35.084Z,10.90
2023-04-19T05:29:08.765Z,8.80
2023-04-19T05:30:54.584Z,11.53
2023-04-19T05:32:30.985Z,10.97
2023-04-19T05:34:05.838Z,11.10
2023-04-19T05:35:39.737Z,8.97
2023-04-19T05:37:13.138Z,8.80
2023-04-19T05:38:46.831Z,11.93
2023-04-19T05:40:23.668Z,14.63
2023-04-19T05:41:57.165Z,12.17
2023-04-19T05:43:30.547Z,10.27
2023-04-19T05:45:06.005Z,10.27
2023-04-19T05:46:41.035Z,8.67
2023-04-19T05:48:17.340Z,8.40
2023-04-19T05:50:09.516Z,7.37
2023-04-19T05:51:51.462Z,6.50
2023-04-19T05:53:38.007Z,8.67
2023-04-19T05:55:11.553Z,6.23
2023-04-19T05:56:50.877Z,8.50
2023-04-19T05:58:24.944Z,8.77
2023-04-19T06:01:46.865Z,6.70
2023-04-19T06:03:20.600Z,7.00
2023-04-19T06:04:54.881Z,6.27
2023-04-19T06:06:28.438Z,6.40
2023-04-19T06:08:03.006Z,5.30
2023-04-19T06:09:36.791Z,9.03
2023-04-19T06:11:20.126Z,6.70
2023-04-19T06:13:01.753Z,9.13
2023-04-19T06:14:35.139Z,7.27
2023-04-19T06:16:09.399Z,6.40
2023-04-19T06:17:42.974Z,7.80
2023-04-19T06:19:16.415Z,5.87
2023-04-19T06:20:49.930Z,6.03
2023-04-19T06:22:23.387Z,7.27
2023-04-19T06:23:56.996Z,5.77
2023-04-19T06:25:30.481Z,5.47
2023-04-19T06:27:03.899Z,7.97
2023-04-19T06:28:38.653Z,7.83
2023-04-19T06:30:12.906Z,8.37
2023-04-19T06:31:46.432Z,5.70
2023-04-19T06:33:19.859Z,6.23
2023-04-19T06:34:53.270Z,7.27
2023-04-19T06:36:26.962Z,6.00
2023-04-19T06:38:00.839Z,6.13
2023-04-19T06:39:34.257Z,7.90
2023-04-19T06:41:07.612Z,6.47
2023-04-19T06:42:41.053Z,4.97
2023-04-19T06:44:16.180Z,5.20
2023-04-19T06:45:50.044Z,5.97
2023-04-19T06:47:23.563Z,4.93
2023-04-19T06:48:56.965Z,4.57
2023-04-19T06:50:30.802Z,4.57
2023-04-19T06:52:04.433Z,4.27
2023-04-19T06:53:37.993Z,7.43
2023-04-19T06:55:11.713Z,6.70
2023-04-19T06:56:46.595Z,5.17
2023-04-19T06:58:20.211Z,4.43
2023-04-19T06:59:55.484Z,6.07
2023-04-19T07:01:28.948Z,6.03
2023-04-19T07:03:02.545Z,5.13
2023-04-19T07:04:36.498Z,4.83
2023-04-19T07:06:09.936Z,4.77
2023-04-19T07:07:43.311Z,3.93
2023-04-19T07:09:16.705Z,3.57
2023-04-19T07:10:50.153Z,8.10
2023-04-19T07:12:23.543Z,5.10
2023-04-19T07:13:56.923Z,3.50
2023-04-19T07:15:31.728Z,3.90
2023-04-19T07:17:06.138Z,4.23
2023-04-19T07:18:38.604Z,4.83
2023-04-19T07:20:12.237Z,3.63
2023-04-19T07:21:45.660Z,3.23
2023-04-19T07:23:19.463Z,5.07
2023-04-19T07:24:53.207Z,3.13
2023-04-19T07:26:27.069Z,4.20
2023-04-19T07:28:00.500Z,4.77
2023-04-19T07:29:36.722Z,3.87
2023-04-19T07:31:16.104Z,2.80
2023-04-19T07:32:51.656Z,4.93
2023-04-19T07:34:25.174Z,4.50
2023-04-19T07:35:58.663Z,4.20
2023-04-19T07:37:32.172Z,4.47
2023-04-19T07:39:05.889Z,6.10
2023-04-19T07:40:39.425Z,3.70
2023-04-19T07:42:12.849Z,3.70
2023-04-19T07:43:46.298Z,6.43
2023-04-19T07:45:19.708Z,3.53
2023-04-19T07:46:54.982Z,5.60
2023-04-19T07:48:28.495Z,4.57
2023-04-19T07:50:01.902Z,6.00
2023-04-19T07:51:35.290Z,4.53
2023-04-19T07:53:08.697Z,4.90
2023-04-19T07:54:42.203Z,5.20
2023-04-19T07:56:16.813Z,3.97
2023-04-19T07:57:50.931Z,5.93
2023-04-19T07:59:24.422Z,4.67
2023-04-19T08:00:57.996Z,4.37
2023-04-19T08:02:32.850Z,6.20
2023-04-19T08:04:06.679Z,3.17
2023-04-19T08:05:40.365Z,4.20
2023-04-19T08:07:13.894Z,3.60
2023-04-19T08:08:48.146Z,3.63
2023-04-19T08:10:23.462Z,4.37
2023-04-19T08:11:57.703Z,4.23
2023-04-19T08:13:31.170Z,4.30
2023-04-19T08:15:15.439Z,3.90
2023-04-19T08:18:31.568Z,5.10
2023-04-19T08:20:06.950Z,4.17
2023-04-19T08:21:41.558Z,4.40
2023-04-19T08:23:22.948Z,5.50
2023-04-19T08:24:59.336Z,4.20
2023-04-19T08:26:32.715Z,5.23
2023-04-19T08:28:06.597Z,3.50
2023-04-19T08:29:40.714Z,5.23
2023-04-19T08:31:14.103Z,6.57
2023-04-19T08:32:47.552Z,4.83
2023-04-19T08:34:22.426Z,4.83
2023-04-19T08:35:55.826Z,3.93
2023-04-19T08:37:29.365Z,4.57
2023-04-19T08:39:06.921Z,4.30
2023-04-19T08:40:48.166Z,4.57
2023-04-19T08:42:33.273Z,4.63
2023-04-19T08:44:09.492Z,4.10
2023-04-19T08:45:42.942Z,4.63
2023-04-19T08:47:27.034Z,5.37
2023-04-19T08:49:06.405Z,6.60
2023-04-19T08:50:56.030Z,5.73
2023-04-19T08:52:47.940Z,5.13
2023-04-19T08:54:28.165Z,4.33
2023-04-19T08:57:38.491Z,6.30
2023-04-19T08:59:18.626Z,4.33
2023-04-19T09:00:53.674Z,4.33
2023-04-19T09:02:27.376Z,4.17
2023-04-19T09:04:10.255Z,3.93
2023-04-19T09:05:51.795Z,5.03
2023-04-19T09:07:25.850Z,9.03
2023-04-19T09:09:28.513Z,4.83
2023-04-19T09:11:07.513Z,5.77
2023-04-19T09:12:41.580Z,3.67
2023-04-19T09:14:16.807Z,6.97
2023-04-19T09:15:51.160Z,6.33
2023-04-19T09:17:24.623Z,7.37
2023-04-19T09:19:08.562Z,5.80
2023-04-19T09:20:57.351Z,4.83
2023-04-19T09:22:30.761Z,4.97
2023-04-19T09:24:04.326Z,8.33
2023-04-19T09:25:59.264Z,4.43
2023-04-19T09:27:32.530Z,4.67
2023-04-19T09:29:06.320Z,5.20
2023-04-19T09:30:50.209Z,7.87
2023-04-19T09:32:46.903Z,4.73
2023-04-19T09:34:21.661Z,6.60
2023-04-19T09:35:56.413Z,5.33
2023-04-19T09:39:06.222Z,6.67
2023-04-19T09:40:40.451Z,6.27
2023-04-19T09:42:15.707Z,7.37
2023-04-19T09:45:30.416Z,6.30
2023-04-19T09:47:04.682Z,6.20
2023-04-19T09:48:38.181Z,4.83
2023-04-19T09:50:22.678Z,6.47
2023-04-19T09:52:00.198Z,5.73
2023-04-19T09:53:35.270Z,6.60
2023-04-19T09:55:17.693Z,4.70
2023-04-19T09:57:01.357Z,7.30
2023-04-19T09:58:46.882Z,7.70
2023-04-19T10:00:23.964Z,8.70
2023-04-19T10:01:57.997Z,9.67
2023-04-19T10:03:32.131Z,7.87
2023-04-19T10:06:58.811Z,6.67
2023-04-19T10:08:37.611Z,5.73
2023-04-19T10:10:19.117Z,7.20
2023-04-19T10:12:03.219Z,8.37
2023-04-19T10:13:45.295Z,8.27
2023-04-19T10:15:19.381Z,5.20
2023-04-19T10:16:53.002Z,5.67
2023-04-19T10:18:26.837Z,5.97
2023-04-19T10:20:06.474Z,6.17
2023-04-19T10:21:40.560Z,7.20
2023-04-19T10:23:13.973Z,6.63
2023-04-19T10:25:02.184Z,7.60
2023-04-19T10:26:50.481Z,4.83
2023-04-19T10:28:25.429Z,6.50
2023-04-19T10:29:58.688Z,5.10
2023-04-19T10:31:32.229Z,5.30
2023-04-19T10:33:07.004Z,5.87
2023-04-19T10:34:42.245Z,6.30
2023-04-19T10:36:17.599Z,5.83
2023-04-19T10:38:12.574Z,5.10
2023-04-19T10:39:46.926Z,6.77
2023-04-19T10:41:21.688Z,8.43
2023-04-19T10:43:13.521Z,6.13
2023-04-19T10:45:01.884Z,4.67
2023-04-19T10:46:41.090Z,5.53
2023-04-19T10:48:33.588Z,5.00
2023-04-19T10:50:07.364Z,4.50
2023-04-19T10:51:43.223Z,6.07
2023-04-19T10:53:35.049Z,5.53
2023-04-19T10:55:09.543Z,7.43
2023-04-19T10:57:04.436Z,5.97
2023-04-19T10:58:54.750Z,4.50
2023-04-19T11:00:31.919Z,10.77
2023-04-19T11:02:07.968Z,8.00
2023-04-19T11:03:54.623Z,7.87
2023-04-19T11:05:28.388Z,4.60
2023-04-19T11:07:03.408Z,5.20
2023-04-19T11:08:36.996Z,6.07
2023-04-19T11:10:11.560Z,6.73
2023-04-19T11:11:48.635Z,7.40
2023-04-19T11:13:23.881Z,5.07
2023-04-19T11:14:59.930Z,6.17
2023-04-19T11:16:45.121Z,6.37
2023-04-19T11:18:21.615Z,6.97
2023-04-19T11:19:55.755Z,4.97
2023-04-19T11:21:30.452Z,6.33
2023-04-19T11:23:04.282Z,4.30
2023-04-19T11:24:37.665Z,5.43
2023-04-19T11:26:12.665Z,4.50
2023-04-19T11:27:47.008Z,5.37
2023-04-19T11:29:22.773Z,4.87
2023-04-19T11:30:57.021Z,5.17
2023-04-19T11:32:30.490Z,5.13
2023-04-19T11:34:06.059Z,5.83
2023-04-19T11:35:39.708Z,5.93
2023-04-19T11:37:13.251Z,4.60
2023-04-19T11:38:50.640Z,4.20
2023-04-19T11:40:27.065Z,3.93
2023-04-19T11:42:00.816Z,6.87
2023-04-19T11:43:34.583Z,4.63
2023-04-19T11:45:18.577Z,3.93
2023-04-19T11:47:00.471Z,4.73
2023-04-19T11:48:34.104Z,5.00
2023-04-19T11:50:26.166Z,5.93
2023-04-19T11:52:04.634Z,5.47
2023-04-19T11:53:39.189Z,3.60
2023-04-19T11:55:21.889Z,4.70
2023-04-19T11:56:58.947Z,4.37
2023-04-19T11:58:33.613Z,7.10
2023-04-19T12:00:12.141Z,4.67
2023-04-19T12:01:46.091Z,4.07
2023-04-19T12:03:25.563Z,3.43
2023-04-19T12:05:08.828Z,5.27
2023-04-19T12:06:42.551Z,6.47
2023-04-19T12:08:17.798Z,7.50
2023-04-19T12:09:51.227Z,7.17
2023-04-19T12:11:26.672Z,5.87
2023-04-19T12:13:00.204Z,7.53
2023-04-19T12:14:34.252Z,6.40
2023-04-19T12:16:07.821Z,5.47
2023-04-19T12:17:57.548Z,5.90
2023-04-19T12:19:36.902Z,5.03
2023-04-19T12:21:10.592Z,4.97
2023-04-19T12:22:45.425Z,4.47
2023-04-19T12:24:20.285Z,6.10
2023-04-19T12:25:53.843Z,5.47
2023-04-19T12:27:27.247Z,5.47
2023-04-19T12:29:00.593Z,6.50
2023-04-19T12:30:35.873Z,7.00
2023-04-19T12:32:09.359Z,5.63
2023-04-19T12:33:42.756Z,5.20
2023-04-19T12:35:16.170Z,6.60
2023-04-19T12:36:50.109Z,4.60
2023-04-19T12:38:23.481Z,5.17
2023-04-19T12:39:58.223Z,5.97
2023-04-19T12:41:31.597Z,5.10
2023-04-19T12:43:05.046Z,6.23
2023-04-19T12:44:38.411Z,5.43
2023-04-19T12:46:11.888Z,4.70
2023-04-19T12:47:45.943Z,6.87
2023-04-19T12:49:20.875Z,4.73
2023-04-19T12:50:54.353Z,6.63
2023-04-19T12:52:27.771Z,7.23
2023-04-19T12:54:02.397Z,5.03
2023-04-19T12:55:37.116Z,7.53
2023-04-19T12:57:10.637Z,6.00
2023-04-19T12:58:44.217Z,4.67
2023-04-19T13:00:18.186Z,5.60
2023-04-19T13:01:51.584Z,6.97
2023-04-19T13:03:24.112Z,8.60
2023-04-19T13:04:57.772Z,6.60
2023-04-19T13:06:31.326Z,4.87
2023-04-19T13:08:04.753Z,5.03
2023-04-19T13:09:38.101Z,5.30
2023-04-19T13:11:12.912Z,5.07
2023-04-19T13:12:46.257Z,6.97
2023-04-19T13:14:19.677Z,6.47
2023-04-19T13:15:53.211Z,4.83
2023-04-19T13:17:26.752Z,6.70
2023-04-19T13:19:00.216Z,6.27
2023-04-19T13:20:33.992Z,6.20
2023-04-19T13:22:07.860Z,6.17
2023-04-19T13:23:41.290Z,4.47
2023-04-19T13:25:14.784Z,5.57
2023-04-19T13:26:49.596Z,7.50
2023-04-19T13:28:23.008Z,6.17
2023-04-19T13:29:57.106Z,7.73
2023-04-19T13:31:30.638Z,4.60
2023-04-19T13:33:04.807Z,6.20
2023-04-19T13:34:40.215Z,6.27
2023-04-19T13:36:13.648Z,5.33
2023-04-19T13:37:47.693Z,6.47
2023-04-19T13:39:21.082Z,5.30
2023-04-19T13:40:54.504Z,4.57
2023-04-19T13:42:29.622Z,5.77
2023-04-19T13:44:03.277Z,5.47
2023-04-19T13:45:36.750Z,5.67
2023-04-19T13:47:10.185Z,6.33
2023-04-19T13:48:43.589Z,6.83
2023-04-19T13:50:17.010Z,5.37
2023-04-19T13:51:51.160Z,5.07
2023-04-19T13:53:24.764Z,7.07
2023-04-19T13:54:58.123Z,6.33
2023-04-19T13:56:31.776Z,7.63
2023-04-19T13:58:06.539Z,5.93
2023-04-19T13:59:40.072Z,5.50
2023-04-19T14:01:13.663Z,8.80
2023-04-19T14:02:48.937Z,6.50
2023-04-19T14:04:24.912Z,5.87
2023-04-19T14:05:58.600Z,5.17
2023-04-19T14:07:32.576Z,6.40
2023-04-19T14:09:06.789Z,5.00
2023-04-19T14:10:40.660Z,5.90
2023-04-19T14:12:14.026Z,6.30
2023-04-19T14:13:49.275Z,8.17
2023-04-19T14:15:23.622Z,7.23
2023-04-19T14:16:56.959Z,6.93
2023-04-19T14:18:30.359Z,8.63
2023-04-19T14:20:06.361Z,6.07
2023-04-19T14:21:41.141Z,6.73
2023-04-19T14:23:14.569Z,4.87
2023-04-19T14:24:46.952Z,5.07
2023-04-19T14:26:20.306Z,7.40
2023-04-19T14:27:53.775Z,6.80
2023-04-19T14:29:28.516Z,6.67
2023-04-19T14:31:02.011Z,6.27
2023-04-19T14:32:35.611Z,6.30
2023-04-19T14:34:09.137Z,7.63
2023-04-19T14:35:43.454Z,6.47
2023-04-19T14:37:16.870Z,7.97
2023-04-19T14:38:50.314Z,7.67
2023-04-19T14:40:23.785Z,5.30
2023-04-19T14:41:57.840Z,7.27
2023-04-19T14:43:31.306Z,8.20
2023-04-19T14:45:06.631Z,8.37
2023-04-19T14:46:40.046Z,9.17
2023-04-19T14:48:13.510Z,9.63
2023-04-19T14:49:47.020Z,7.43
2023-04-19T14:51:20.407Z,7.97
2023-04-19T14:52:54.651Z,8.83
2023-04-19T14:54:28.071Z,7.40
2023-04-19T14:56:01.613Z,8.60
2023-04-19T14:57:35.000Z,7.33
2023-04-19T14:59:09.008Z,6.87
2023-04-19T15:00:43.810Z,9.60
2023-04-19T15:02:17.372Z,7.37
2023-04-19T15:03:51.192Z,7.03
2023-04-19T15:05:25.445Z,5.80
2023-04-19T15:06:59.039Z,6.10
2023-04-19T15:08:32.557Z,5.97
2023-04-19T15:10:06.313Z,4.70
2023-04-19T15:11:39.755Z,6.60
2023-04-19T15:13:13.177Z,4.90
2023-04-19T15:14:46.550Z,5.23
2023-04-19T15:16:21.322Z,4.37
2023-04-19T15:17:54.783Z,5.80
2023-04-19T15:19:29.703Z,5.70
2023-04-19T15:21:04.479Z,5.13
2023-04-19T15:22:37.926Z,5.60
2023-04-19T15:24:11.289Z,6.83
2023-04-19T15:25:45.044Z,5.27
2023-04-19T15:27:18.477Z,5.53
2023-04-19T15:28:52.317Z,5.10
2023-04-19T15:30:25.904Z,8.37
2023-04-19T15:32:00.873Z,6.00
2023-04-19T15:33:33.603Z,6.63
2023-04-19T15:35:07.429Z,6.10
2023-04-19T15:36:41.298Z,8.53
2023-04-19T15:38:14.713Z,6.47
2023-04-19T15:39:50.171Z,6.93
2023-04-19T15:41:23.598Z,6.20
2023-04-19T15:42:56.989Z,7.57
2023-04-19T15:44:30.421Z,6.73
2023-04-19T15:46:03.856Z,8.40
2023-04-19T15:47:38.740Z,6.90
2023-04-19T15:49:12.467Z,6.87
2023-04-19T15:50:45.957Z,7.90
2023-04-19T15:52:19.315Z,7.07
2023-04-19T15:53:52.715Z,7.47
2023-04-19T15:55:26.097Z,8.40
2023-04-19T15:56:59.481Z,7.53
2023-04-19T15:58:32.857Z,6.23
2023-04-19T16:00:09.304Z,7.33
2023-04-19T16:01:45.631Z,7.53
2023-04-19T16:03:20.532Z,8.07
2023-04-19T16:04:54.294Z,7.13
2023-04-19T16:06:28.325Z,7.53
2023-04-19T16:08:05.388Z,7.37
2023-04-19T16:09:38.759Z,8.67
2023-04-19T16:11:12.171Z,29.57
2023-04-19T16:12:46.027Z,13.27
2023-04-19T16:14:19.389Z,9.03
2023-04-19T16:15:52.803Z,8.73
2023-04-19T16:17:26.259Z,8.77
2023-04-19T16:19:00.981Z,8.80
2023-04-19T16:20:34.375Z,9.07
2023-04-19T16:22:07.771Z,8.20
2023-04-19T16:23:41.173Z,9.67
2023-04-19T16:25:15.020Z,10.43
2023-04-19T16:26:48.428Z,9.77
2023-04-19T16:28:21.780Z,10.20
2023-04-19T16:29:55.168Z,10.90
2023-04-19T16:31:28.624Z,9.80
2023-04-19T16:33:02.048Z,13.00
2023-04-19T16:34:36.940Z,11.90
2023-04-19T16:36:10.368Z,10.90
2023-04-19T16:37:43.848Z,12.50
2023-04-19T16:39:17.352Z,10.50
2023-04-19T16:40:51.353Z,10.57
2023-04-19T16:42:24.757Z,9.37
2023-04-19T16:43:58.208Z,9.93
2023-04-19T16:45:31.712Z,10.37
2023-04-19T16:47:05.123Z,10.80
2023-04-19T16:48:38.557Z,11.27
2023-04-19T16:50:14.166Z,9.83
2023-04-19T16:51:47.651Z,10.40
2023-04-19T16:53:21.561Z,9.13
2023-04-19T16:54:54.949Z,8.60
2023-04-19T16:56:28.396Z,8.73
2023-04-19T16:58:01.764Z,9.27
2023-04-19T16:59:35.161Z,9.07
2023-04-19T17:01:09.064Z,9.50
2023-04-19T17:02:42.736Z,10.83
2023-04-19T17:04:16.462Z,8.83
2023-04-19T17:05:51.366Z,8.83
2023-04-19T17:07:24.775Z,8.03
2023-04-19T17:08:58.228Z,8.47
2023-04-19T17:10:31.599Z,8.90
2023-04-19T17:12:05.078Z,8.80
2023-04-19T17:13:38.762Z,10.47
2023-04-19T17:15:12.532Z,9.07
2023-04-19T17:16:45.994Z,8.47
2023-04-19T17:18:19.377Z,9.73
2023-04-19T17:19:54.656Z,9.07
2023-04-19T17:21:31.341Z,7.77
2023-04-19T17:23:04.788Z,9.63
2023-04-19T17:24:39.192Z,9.73
2023-04-19T17:26:12.559Z,9.23
2023-04-19T17:27:46.133Z,9.47
2023-04-19T17:29:19.692Z,9.23
2023-04-19T17:30:53.198Z,9.20
2023-04-19T17:32:26.583Z,8.63
2023-04-19T17:34:00.025Z,9.80
2023-04-19T17:35:33.381Z,8.93
2023-04-19T17:37:08.299Z,10.03
2023-04-19T17:38:41.684Z,8.73
2023-04-19T17:40:15.044Z,9.50
2023-04-19T17:41:48.445Z,10.47
2023-04-19T17:43:21.905Z,10.47
2023-04-19T17:44:55.306Z,13.20
2023-04-19T17:46:28.821Z,12.07
2023-04-19T17:48:02.254Z,10.60
2023-04-19T17:49:35.679Z,11.30
2023-04-19T17:51:09.209Z,11.20
2023-04-19T17:52:43.979Z,14.43
2023-04-19T17:54:17.443Z,16.80
2023-04-19T17:55:51.086Z,15.50
2023-04-19T17:57:24.631Z,10.47
2023-04-19T17:59:00.625Z,13.27
2023-04-19T18:00:34.038Z,10.40
2023-04-19T18:02:09.722Z,9.83
2023-04-19T18:03:43.984Z,12.40
2023-04-19T18:05:17.798Z,11.97
2023-04-19T18:06:51.218Z,11.63
2023-04-19T18:08:25.987Z,10.03
2023-04-19T18:09:59.384Z,9.40
2023-04-19T18:11:32.838Z,10.90
2023-04-19T18:13:06.223Z,10.07
2023-04-19T18:14:39.591Z,9.93
2023-04-19T18:16:13.554Z,10.77
2023-04-19T18:17:47.066Z,10.53
2023-04-19T18:19:20.589Z,8.80
2023-04-19T18:20:54.034Z,10.70
2023-04-19T18:22:27.434Z,10.87
2023-04-19T18:24:02.202Z,9.67
2023-04-19T18:25:36.854Z,11.73
2023-04-19T18:27:10.750Z,10.37
2023-04-19T18:28:44.137Z,10.70
2023-04-19T18:30:17.574Z,10.63
2023-04-19T18:31:52.876Z,11.50
2023-04-19T18:33:26.323Z,12.27
2023-04-19T18:34:59.855Z,10.17
2023-04-19T18:36:33.271Z,10.40
2023-04-19T18:38:06.613Z,10.00
2023-04-19T18:39:41.357Z,10.87
2023-04-19T18:41:14.740Z,11.03
2023-04-19T18:42:48.174Z,11.47
2023-04-19T18:44:44.306Z,10.30
2023-04-19T18:46:15.100Z,12.90
2023-04-19T18:47:48.745Z,12.03
2023-04-19T18:49:22.636Z,10.80
2023-04-19T18:50:56.819Z,10.63
2023-04-19T18:52:30.262Z,12.83
2023-04-19T18:54:03.643Z,9.93
2023-04-19T18:55:38.431Z,8.60
2023-04-19T18:57:23.127Z,10.43
2023-04-19T18:58:59.842Z,9.93
2023-04-19T19:00:33.390Z,8.83
2023-04-19T19:02:06.882Z,9.90
2023-04-19T19:04:02.814Z,9.10
2023-04-19T19:05:33.910Z,8.10
2023-04-19T19:07:18.307Z,9.03
2023-04-19T19:09:01.129Z,10.33
2023-04-19T19:12:16.037Z,9.97
2023-04-19T19:13:49.414Z,8.93
2023-04-19T19:15:22.808Z,8.63
2023-04-19T19:16:57.374Z,9.73
2023-04-19T19:18:30.871Z,9.80
2023-04-19T19:20:05.426Z,9.30
2023-04-19T19:21:38.803Z,10.37
2023-04-19T19:23:12.987Z,10.33
2023-04-19T19:24:46.440Z,9.90
2023-04-19T19:26:19.852Z,10.13
2023-04-19T19:29:36.317Z,7.27
2023-04-19T19:31:10.529Z,8.33
2023-04-19T19:32:43.930Z,8.97
2023-04-19T19:34:27.198Z,7.70
2023-04-19T19:36:03.533Z,7.90
2023-04-19T19:37:37.258Z,8.83
2023-04-19T19:39:11.326Z,9.07
2023-04-19T19:42:21.027Z,6.87
2023-04-19T19:43:55.799Z,7.50
2023-04-19T19:45:29.455Z,8.53
2023-04-19T19:47:08.349Z,7.23
2023-04-19T19:48:43.483Z,7.67
2023-04-19T19:51:58.346Z,7.20
2023-04-19T19:53:32.625Z,7.53
2023-04-19T19:55:06.289Z,8.27
2023-04-19T19:56:53.916Z,8.63
2023-04-19T20:00:36.870Z,7.10
2023-04-19T20:02:05.713Z,7.70
2023-04-19T20:03:39.374Z,8.63
2023-04-19T20:05:13.563Z,7.10
2023-04-19T20:08:23.731Z,6.43
2023-04-19T20:09:57.219Z,7.87
2023-04-19T20:11:30.629Z,8.57
2023-04-19T20:13:06.135Z,10.10
2023-04-19T20:14:39.645Z,8.03
2023-04-19T20:16:14.696Z,9.83
2023-04-19T20:17:48.246Z,8.90
2023-04-19T20:19:21.989Z,8.20
2023-04-19T20:20:55.464Z,7.80
2023-04-19T20:22:28.843Z,8.73
2023-04-19T20:24:02.214Z,9.53
2023-04-19T20:25:35.895Z,8.17
2023-04-19T20:27:09.423Z,8.67
2023-04-19T20:28:42.797Z,9.33
2023-04-19T20:30:16.365Z,7.97
2023-04-19T20:31:51.244Z,9.37
2023-04-19T20:33:24.698Z,7.90
2023-04-19T20:34:59.339Z,8.60
2023-04-19T20:36:33.052Z,9.90
2023-04-19T20:38:07.564Z,7.60
2023-04-19T20:39:40.985Z,8.83
2023-04-19T20:41:14.418Z,8.67
2023-04-19T20:42:47.766Z,8.57
2023-04-19T20:44:21.526Z,8.50
2023-04-19T20:45:54.915Z,10.10
2023-04-19T20:47:30.808Z,8.57
2023-04-19T20:49:04.355Z,8.83
2023-04-19T20:50:37.743Z,10.10
2023-04-19T20:52:11.130Z,9.13
2023-04-19T20:53:44.490Z,11.83
2023-04-19T20:55:17.946Z,9.40
2023-04-19T20:56:51.316Z,9.97
2023-04-19T20:58:24.902Z,8.40
2023-04-19T20:59:58.321Z,7.90
2023-04-19T21:01:32.031Z,7.67
2023-04-19T21:03:07.808Z,8.17
2023-04-19T21:04:42.266Z,7.40
2023-04-19T21:06:15.653Z,8.57
2023-04-19T21:07:49.106Z,9.67
2023-04-19T21:09:22.678Z,7.33
2023-04-19T21:10:56.251Z,7.73
2023-04-19T21:12:29.848Z,7.80
2023-04-19T21:14:03.231Z,7.57
2023-04-19T21:15:37.588Z,7.07